Time;durP1;ratioP1;P1;durP2;ratioP2;P2;SDS_P1;SDS_P2;PMS_P1;PMS_P2;Temp;Humidity;BMP_temperature;BMP_pressure;BME280_temperature;BME280_humidity;BME280_pressure;Samples;Min_cycle;Max_cycle;Signal;HPM_P1;HPM_P2
2022/04/13 00:02:07;;;;;;;6.90;6.20;;;;;;;13.12;100.00;101074.63;4995546;28;20189;-73
2022/04/13 00:04:33;;;;;;;7.57;5.90;;;;;;;13.41;100.00;101137.19;4995437;28;20857;-73
2022/04/13 00:06:58;;;;;;;6.43;5.83;;;;;;;13.13;100.00;101080.84;4994171;28;20279;-73
2022/04/13 00:09:24;;;;;;;7.60;6.10;;;;;;;13.18;100.00;101091.81;4997327;28;20214;-73
2022/04/13 00:11:51;;;;;;;7.10;6.40;;;;;;;12.99;100.00;101063.91;4995065;28;20280;-74
2022/04/13 00:14:18;;;;;;;6.37;5.77;;;;;;;13.39;100.00;101127.66;4996468;28;20185;-74
2022/04/13 00:16:43;;;;;;;7.93;6.10;;;;;;;13.45;100.00;101133.06;4996293;28;20448;-73
2022/04/13 00:19:08;;;;;;;5.83;5.33;;;;;;;13.09;100.00;101080.44;4997157;28;20483;-73
2022/04/13 00:21:34;;;;;;;7.37;5.20;;;;;;;12.61;100.00;101021.47;4996377;28;20287;-73
2022/04/13 00:23:59;;;;;;;6.70;6.10;;;;;;;12.98;100.00;101089.16;4995481;28;20562;-74
2022/04/13 00:26:25;;;;;;;7.10;6.07;;;;;;;13.28;100.00;101138.06;4994750;28;20255;-73
2022/04/13 00:28:51;;;;;;;7.10;6.40;;;;;;;13.18;100.00;101152.94;4990832;28;20201;-73
2022/04/13 00:31:16;;;;;;;7.90;5.97;;;;;;;13.07;100.00;101105.91;4998252;28;20192;-74
2022/04/13 00:33:41;;;;;;;7.67;6.77;;;;;;;12.81;100.00;101056.44;4992177;28;20268;-73
2022/04/13 00:36:07;;;;;;;7.23;6.53;;;;;;;12.93;100.00;101096.19;4995385;28;20214;-74
2022/04/13 00:38:32;;;;;;;6.80;6.20;;;;;;;13.41;100.00;101137.19;4993966;28;20296;-73
2022/04/13 00:40:58;;;;;;;9.30;6.87;;;;;;;13.08;100.00;101116.50;4994336;28;20177;-73
2022/04/13 00:43:24;;;;;;;5.90;5.40;;;;;;;12.94;100.00;101093.31;4995101;28;20276;-74
2022/04/13 00:45:50;;;;;;;7.60;6.80;;;;;;;13.23;100.00;101147.78;5000583;28;20182;-73
2022/04/13 00:48:32;;;;;;;6.30;5.80;;;;;;;13.12;100.00;101131.19;5000747;28;20436;-73
2022/04/13 00:50:58;;;;;;;7.43;6.23;;;;;;;12.84;100.00;101093.75;5000261;28;20441;-73
2022/04/13 00:53:24;;;;;;;7.17;6.20;;;;;;;13.14;100.00;101149.03;4998324;28;20445;-74
2022/04/13 00:55:55;;;;;;;6.90;6.20;;;;;;;12.78;100.00;101074.88;4999872;28;20186;-74
2022/04/13 00:58:24;;;;;;;6.67;6.07;;;;;;;13.12;100.00;101130.38;4998504;28;20578;-73
2022/04/13 01:00:49;;;;;;;7.67;6.90;;;;;;;13.14;100.00;101147.16;5000486;28;20525;-74
2022/04/13 01:03:20;;;;;;;7.17;6.47;;;;;;;12.92;100.00;101108.00;4998315;28;20557;-73
2022/04/13 01:05:47;;;;;;;6.73;6.13;;;;;;;13.01;100.00;101134.50;4998050;28;20443;-73
2022/04/13 01:08:17;;;;;;;6.90;6.20;;;;;;;13.07;100.00;101133.66;4996099;28;20532;-73
2022/04/13 01:10:44;;;;;;;10.83;6.83;;;;;;;13.15;100.00;101151.50;5000668;28;21135;-73
2022/04/13 01:13:12;;;;;;;7.07;5.90;;;;;;;12.76;100.00;101141.56;4997749;28;20516;-73
2022/04/13 01:15:38;;;;;;;7.37;6.57;;;;;;;12.78;100.00;101132.22;4997957;28;20985;-73
2022/04/13 01:18:04;;;;;;;6.70;6.10;;;;;;;12.72;100.00;101116.91;5000537;28;20555;-73
2022/04/13 01:20:30;;;;;;;6.60;5.70;;;;;;;12.77;100.00;101137.81;5002518;28;20551;-74
2022/04/13 01:22:55;;;;;;;8.37;6.53;;;;;;;11.76;100.00;101014.91;5000262;28;20813;-73
2022/04/13 01:25:21;;;;;;;7.90;7.10;;;;;;;12.77;100.00;101159.34;4998772;28;20756;-73
2022/04/13 01:27:46;;;;;;;6.87;6.03;;;;;;;12.40;100.00;101100.50;4999935;28;20240;-73
2022/04/13 01:30:12;;;;;;;6.70;6.10;;;;;;;12.54;100.00;101154.34;5000881;28;20232;-73
2022/04/13 01:32:38;;;;;;;7.77;6.83;;;;;;;12.61;100.00;101129.13;4997178;28;20193;-73
2022/04/13 01:35:04;;;;;;;6.90;6.30;;;;;;;12.71;100.00;101160.19;4997512;28;20447;-73
2022/04/13 01:37:30;;;;;;;8.13;6.83;;;;;;;12.58;100.00;101143.00;5000342;28;20295;-74
2022/04/13 01:39:55;;;;;;;7.13;6.47;;;;;;;12.53;100.00;101144.63;4998540;28;20563;-73
2022/04/13 01:42:21;;;;;;;8.07;6.50;;;;;;;12.21;100.00;101134.41;4995605;28;20193;-74
2022/04/13 01:44:48;;;;;;;8.03;7.23;;;;;;;12.67;100.00;101170.53;4998558;28;20193;-73
2022/04/13 01:47:13;;;;;;;7.07;6.23;;;;;;;11.80;100.00;101050.28;4996931;28;20535;-73
2022/04/13 01:49:39;;;;;;;11.70;7.10;;;;;;;12.59;100.00;101152.72;5002422;28;20455;-74
2022/04/13 01:52:06;;;;;;;7.50;6.80;;;;;;;12.70;100.00;101169.28;4995137;28;20773;-74
2022/04/13 01:54:31;;;;;;;7.23;6.50;;;;;;;12.66;100.00;101172.38;4995841;28;20686;-74
2022/04/13 01:56:57;;;;;;;8.20;7.00;;;;;;;11.86;100.00;101097.88;4995483;28;20449;-73
2022/04/13 01:59:23;;;;;;;7.73;6.97;;;;;;;11.90;100.00;101115.28;4999017;28;20236;-73
2022/04/13 02:01:48;;;;;;;7.87;7.07;;;;;;;11.43;100.00;101055.91;4996152;28;20194;-73
2022/04/13 02:04:22;;;;;;;8.57;7.67;;;;;;;12.24;100.00;101197.72;4996149;28;20201;-73
2022/04/13 02:06:49;;;;;;;12.30;7.80;;;;;;;12.30;100.00;101198.78;4998829;28;20197;-73
2022/04/13 02:09:18;;;;;;;8.50;7.60;;;;;;;11.85;100.00;101129.31;4997208;28;21346;-73
2022/04/13 02:11:45;;;;;;;7.87;7.10;;;;;;;11.96;100.00;101155.63;5000622;28;20432;-73
2022/04/13 02:14:10;;;;;;;7.73;7.03;;;;;;;12.28;100.00;101208.91;4996503;28;20441;-73
2022/04/13 02:16:36;;;;;;;7.80;7.10;;;;;;;12.38;100.00;101210.19;4995631;28;20439;-73
2022/04/13 02:19:02;;;;;;;8.20;7.40;;;;;;;12.37;100.00;101207.69;4992669;28;20280;-73
2022/04/13 02:21:28;;;;;;;7.57;6.77;;;;;;;12.25;100.00;101190.50;4998530;28;20698;-73
2022/04/13 02:23:53;;;;;;;7.77;7.03;;;;;;;12.28;100.00;101204.34;4998700;28;20527;-73
2022/04/13 02:26:19;;;;;;;7.40;6.70;;;;;;;12.08;100.00;101152.34;4998976;28;20807;-73
2022/04/13 02:28:48;;;;;;;7.90;7.00;;;;;;;12.23;100.00;101177.22;4996021;28;20197;-73
2022/04/13 02:31:13;;;;;;;7.57;6.80;;;;;;;12.52;100.00;101197.59;4996452;28;20436;-73
2022/04/13 02:33:39;;;;;;;7.27;6.57;;;;;;;12.30;100.00;101148.50;4992988;28;20493;-73
2022/04/13 02:36:05;;;;;;;6.90;6.20;;;;;;;12.40;100.00;101143.56;4995823;28;20185;-73
2022/04/13 02:38:31;;;;;;;8.40;7.43;;;;;;;12.60;100.00;101173.19;4997055;28;20288;-73
2022/04/13 02:40:56;;;;;;;7.73;6.93;;;;;;;12.18;100.00;101107.09;4994830;28;20882;-73
2022/04/13 02:43:25;;;;;;;8.43;7.10;;;;;;;12.22;100.00;101132.53;4998015;28;20263;-73
2022/04/13 02:45:50;;;;;;;7.80;7.00;;;;;;;12.16;100.00;101111.84;4995879;28;20190;-73
2022/04/13 02:48:16;;;;;;;8.00;7.20;;;;;;;12.53;100.00;101190.38;4994704;28;20444;-73
2022/04/13 02:50:41;;;;;;;7.30;6.60;;;;;;;12.53;100.00;101196.59;4995097;28;20237;-73
2022/04/13 02:53:07;;;;;;;7.13;6.43;;;;;;;12.34;100.00;101182.03;4998501;28;20185;-73
2022/04/13 02:55:32;;;;;;;8.03;7.23;;;;;;;12.43;100.00;101214.97;4993166;28;20561;-74
2022/04/13 02:57:58;;;;;;;7.73;6.90;;;;;;;12.37;100.00;101221.97;4995877;28;20202;-73
2022/04/13 03:00:23;;;;;;;7.90;6.77;;;;;;;12.45;100.00;101212.91;4994527;28;20217;-73
2022/04/13 03:02:48;;;;;;;12.03;7.67;;;;;;;12.38;100.00;101203.97;4994723;28;20202;-73
2022/04/13 03:05:14;;;;;;;8.37;7.57;;;;;;;11.90;100.00;101145.66;4994383;28;20643;-73
2022/04/13 03:07:39;;;;;;;7.80;6.97;;;;;;;11.75;100.00;101161.91;4993941;28;20208;-73
2022/04/13 03:10:06;;;;;;;8.30;7.47;;;;;;;11.38;100.00;101095.97;4997739;28;20193;-73
2022/04/13 03:12:33;;;;;;;8.00;7.20;;;;;;;11.97;100.00;101231.72;4996458;28;20197;-73
2022/04/13 03:15:01;;;;;;;7.93;7.13;;;;;;;12.09;100.00;101218.53;4997648;28;20439;-74
2022/04/13 03:17:27;;;;;;;8.73;7.83;;;;;;;12.23;100.00;101222.13;5000475;28;20892;-73
2022/04/13 03:19:52;;;;;;;7.90;7.10;;;;;;;11.92;100.00;101186.63;4999161;28;20562;-74
2022/04/13 03:22:22;;;;;;;7.37;6.60;;;;;;;11.54;100.00;101164.66;5000316;28;20264;-73
2022/04/13 03:24:47;;;;;;;7.60;6.83;;;;;;;11.95;100.00;101205.03;4998310;28;20268;-73
2022/04/13 03:27:12;;;;;;;8.47;7.10;;;;;;;11.62;100.00;101172.56;4996480;28;20523;-74
2022/04/13 03:29:38;;;;;;;8.20;7.20;;;;;;;11.61;100.00;101151.28;4995736;28;20212;-73
2022/04/13 03:32:04;;;;;;;7.33;6.63;;;;;;;11.90;100.00;101188.66;4998070;28;20261;-73
2022/04/13 03:34:30;;;;;;;8.00;7.20;;;;;;;11.91;100.00;101195.69;5001035;28;20185;-74
2022/04/13 03:36:55;;;;;;;8.53;7.63;;;;;;;11.86;100.00;101211.63;4996980;28;20471;-73
2022/04/13 03:39:20;;;;;;;8.00;7.20;;;;;;;11.86;100.00;101194.63;4999410;28;20784;-73
2022/04/13 03:41:46;;;;;;;8.23;7.23;;;;;;;12.49;100.00;101253.69;4997984;28;20189;-74
2022/04/13 03:44:12;;;;;;;8.10;7.30;;;;;;;12.65;100.00;101259.53;4999493;28;20178;-73
2022/04/13 03:46:38;;;;;;;9.63;7.00;;;;;;;12.46;100.00;101273.75;4997680;28;20193;-73
2022/04/13 03:49:03;;;;;;;8.47;7.67;;;;;;;12.13;100.00;101201.00;4998313;28;20671;-73
2022/04/13 03:51:31;;;;;;;8.87;7.80;;;;;;;12.37;100.00;101262.31;4999384;28;20578;-73
2022/04/13 03:53:57;;;;;;;8.80;7.90;;;;;;;11.82;100.00;101199.56;4999031;28;20200;-73
2022/04/13 03:56:22;;;;;;;7.87;7.07;;;;;;;11.95;100.00;101233.78;4999324;28;20425;-73
2022/04/13 03:58:47;;;;;;;8.10;7.30;;;;;;;12.03;100.00;101265.03;4996068;28;20872;-73
2022/04/13 04:01:13;;;;;;;7.93;7.13;;;;;;;11.92;100.00;101197.38;4995845;28;20278;-73
2022/04/13 04:03:38;;;;;;;8.23;7.30;;;;;;;12.28;100.00;101243.88;4995324;28;20193;-73
2022/04/13 04:06:04;;;;;;;7.80;7.00;;;;;;;12.15;100.00;101282.28;4998180;28;20189;-73
2022/04/13 04:08:32;;;;;;;7.73;7.00;;;;;;;12.20;100.00;101277.97;4998275;28;20193;-73
2022/04/13 04:10:58;;;;;;;7.80;7.00;;;;;;;12.07;100.00;101277.91;4998327;28;20186;-73
2022/04/13 04:13:23;;;;;;;7.83;7.03;;;;;;;11.97;100.00;101245.97;4993180;28;20962;-73
2022/04/13 04:15:49;;;;;;;7.60;6.87;;;;;;;11.93;100.00;101254.66;4997296;28;20231;-73
2022/04/13 04:18:15;;;;;;;8.40;7.50;;;;;;;12.05;100.00;101273.75;4995465;28;20251;-74
2022/04/13 04:20:41;;;;;;;7.40;6.70;;;;;;;12.06;100.00;101278.09;5017017;23;20232;-74
2022/04/13 04:23:06;;;;;;;8.07;7.27;;;;;;;11.92;100.00;101244.94;5018090;28;20798;-73
2022/04/13 04:25:31;;;;;;;8.90;7.73;;;;;;;12.17;100.00;101293.66;5019474;28;20698;-74
2022/04/13 04:27:57;;;;;;;8.60;7.23;;;;;;;12.24;100.00;101278.41;5021014;28;20185;-74
2022/04/13 04:30:22;;;;;;;10.23;8.23;;;;;;;12.01;100.00;101254.50;5017655;28;20297;-74
2022/04/13 04:32:48;;;;;;;7.00;6.30;;;;;;;12.21;100.00;101281.50;5027211;28;20646;-73
2022/04/13 04:35:13;;;;;;;8.40;7.00;;;;;;;11.80;100.00;101223.09;5018773;28;20187;-74
2022/04/13 04:37:38;;;;;;;8.30;7.13;;;;;;;11.80;100.00;101233.84;5011941;28;20208;-74
2022/04/13 04:40:05;;;;;;;7.97;6.87;;;;;;;11.92;100.00;101261.91;5019008;28;20231;-73
2022/04/13 04:42:30;;;;;;;8.50;7.07;;;;;;;11.66;100.00;101222.22;5012724;28;20184;-73
2022/04/13 04:44:59;;;;;;;8.57;7.17;;;;;;;12.20;100.00;101304.84;5015511;28;20431;-73
2022/04/13 04:47:27;;;;;;;7.37;6.27;;;;;;;12.30;100.00;101325.19;5016601;28;20674;-73
2022/04/13 04:49:53;;;;;;;7.17;6.43;;;;;;;12.18;100.00;101303.41;5013782;28;20551;-73
2022/04/13 04:52:18;;;;;;;8.53;7.73;;;;;;;11.88;100.00;101257.91;5012579;28;20541;-73
2022/04/13 04:54:45;;;;;;;8.67;7.33;;;;;;;11.95;100.00;101282.19;5017471;28;20534;-73
2022/04/13 04:57:11;;;;;;;7.67;6.73;;;;;;;12.21;100.00;101308.41;5013814;28;20185;-71
2022/04/13 04:59:36;;;;;;;9.93;6.30;;;;;;;11.93;100.00;101286.91;5020266;28;20517;-73
2022/04/13 05:02:02;;;;;;;7.10;6.27;;;;;;;11.77;100.00;101237.78;5014653;28;20186;-72
2022/04/13 05:04:27;;;;;;;7.57;6.90;;;;;;;12.36;100.00;101337.84;5016700;28;20670;-71
2022/04/13 05:06:52;;;;;;;7.97;6.53;;;;;;;12.26;100.00;101307.78;5019166;28;20273;-74
2022/04/13 05:09:18;;;;;;;7.67;6.90;;;;;;;11.91;100.00;101278.19;5016171;28;20224;-73
2022/04/13 05:11:45;;;;;;;9.73;7.40;;;;;;;12.30;100.00;101331.41;5019613;28;20267;-74
2022/04/13 05:14:10;;;;;;;7.43;6.60;;;;;;;12.03;100.00;101295.44;5014949;28;20898;-74
2022/04/13 05:16:36;;;;;;;8.10;7.30;;;;;;;12.02;100.00;101290.28;5033704;28;20423;-73
2022/04/13 05:19:01;;;;;;;7.97;7.20;;;;;;;12.16;100.00;101310.84;5016901;28;21559;-73
2022/04/13 05:21:27;;;;;;;7.30;6.60;;;;;;;12.19;100.00;101305.06;5016282;28;20224;-73
2022/04/13 05:23:52;;;;;;;6.90;6.27;;;;;;;12.24;100.00;101326.81;5013905;28;20704;-73
2022/04/13 05:26:18;;;;;;;11.50;7.80;;;;;;;11.41;100.00;101224.50;5016871;28;20259;-74
2022/04/13 05:28:48;;;;;;;7.67;6.87;;;;;;;11.90;100.00;101260.44;5017375;28;20185;-74
2022/04/13 05:31:14;;;;;;;9.00;6.70;;;;;;;11.69;100.00;101280.94;5019795;28;21536;-73
2022/04/13 05:33:39;;;;;;;8.00;7.20;;;;;;;11.87;100.00;101293.91;5019466;28;20435;-73
2022/04/13 05:36:05;;;;;;;8.40;7.57;;;;;;;12.06;100.00;101278.09;5022174;28;20450;-74
2022/04/13 05:38:31;;;;;;;8.77;7.33;;;;;;;12.40;100.00;101350.69;5018937;28;20209;-73
2022/04/13 05:40:56;;;;;;;10.67;9.30;;;;;;;12.07;100.00;101287.84;5021993;28;20201;-73
2022/04/13 05:43:21;;;;;;;9.97;8.20;;;;;;;12.59;100.00;101369.84;5019650;28;20248;-74
2022/04/13 05:45:47;;;;;;;8.90;7.97;;;;;;;12.14;100.00;101305.66;5020803;28;20221;-73
2022/04/13 05:48:12;;;;;;;8.80;7.40;;;;;;;12.42;100.00;101377.41;5019845;28;20211;-73
2022/04/13 05:50:38;;;;;;;8.00;7.20;;;;;;;12.12;100.00;101318.47;5019246;28;20205;-74
2022/04/13 05:53:03;;;;;;;9.50;8.17;;;;;;;12.23;100.00;101322.44;5020204;28;20177;-74
2022/04/13 05:55:29;;;;;;;10.97;9.70;;;;;;;12.47;100.00;101366.03;5020586;28;20185;-73
2022/04/13 05:57:55;;;;;;;9.43;8.43;;;;;;;11.57;100.00;101269.06;5020352;28;20204;-73
2022/04/13 06:00:21;;;;;;;9.80;8.80;;;;;;;12.46;100.00;101392.13;5018452;28;20485;-73
2022/04/13 06:02:47;;;;;;;8.87;7.67;;;;;;;12.05;100.00;101330.22;5020521;28;20424;-73
2022/04/13 06:05:12;;;;;;;11.20;7.50;;;;;;;11.91;100.00;101324.72;5018800;28;20185;-73
2022/04/13 06:07:42;;;;;;;8.03;7.13;;;;;;;11.98;100.00;101322.09;5021510;28;20184;-73
2022/04/13 06:10:08;;;;;;;8.93;7.80;;;;;;;12.11;100.00;101324.88;5020136;28;20452;-73
2022/04/13 06:12:33;;;;;;;8.57;7.27;;;;;;;12.35;100.00;101380.06;5021935;28;21014;-73
2022/04/13 06:15:06;;;;;;;12.23;9.13;;;;;;;12.42;100.00;101385.50;5017407;28;20420;-73
2022/04/13 06:17:32;;;;;;;10.20;8.50;;;;;;;12.54;100.00;101408.13;5023120;28;20272;-73
2022/04/13 06:19:57;;;;;;;12.40;10.37;;;;;;;12.51;100.00;101368.16;5019129;28;20902;-73
2022/04/13 06:22:23;;;;;;;12.83;10.33;;;;;;;12.64;100.00;101372.75;5021367;28;20188;-73
2022/04/13 06:24:51;;;;;;;13.40;10.50;;;;;;;12.48;100.00;101343.50;5018841;28;20203;-73
2022/04/13 06:27:20;;;;;;;12.07;8.93;;;;;;;12.47;100.00;101320.31;5022284;28;20631;-73
2022/04/13 06:29:46;;;;;;;12.13;8.97;;;;;;;12.52;100.00;101337.50;5019536;28;20436;-73
2022/04/13 06:32:14;;;;;;;10.07;8.30;;;;;;;12.52;100.00;101331.31;5020828;28;20427;-72
2022/04/13 06:34:41;;;;;;;10.40;8.00;;;;;;;13.16;100.00;101421.66;5017877;28;20431;-72
2022/04/13 06:37:07;;;;;;;9.60;8.00;;;;;;;12.94;100.00;101394.03;5018141;28;20673;-73
2022/04/13 06:39:32;;;;;;;9.63;7.10;;;;;;;12.91;100.00;101394.44;5020940;28;20475;-73
2022/04/13 06:41:57;;;;;;;9.20;7.13;;;;;;;13.05;100.00;101388.06;5010190;28;20185;-72
2022/04/13 06:44:23;;;;;;;10.40;6.90;;;;;;;12.62;100.00;101321.00;5016343;28;20264;-72
2022/04/13 06:46:48;;;;;;;10.30;6.90;;;;;;;13.20;100.00;101398.69;5018549;28;20526;-72
2022/04/13 06:49:13;;;;;;;11.80;7.23;;;;;;;12.99;100.00;101375.41;5025600;28;20181;-72
2022/04/13 06:51:39;;;;;;;10.00;6.83;;;;;;;13.16;100.00;101413.56;5024046;28;20593;-72
2022/04/13 06:54:04;;;;;;;8.20;6.57;;;;;;;12.33;100.00;101282.59;5017571;28;20188;-72
2022/04/13 06:56:32;;;;;;;8.67;7.50;;;;;;;13.23;100.00;101449.47;5019858;28;20189;-72
2022/04/13 06:58:58;;;;;;;10.90;7.00;;;;;;;12.79;100.00;101381.56;5018414;28;20197;-73
2022/04/13 07:01:23;;;;;;;11.33;6.70;;;;;;;13.13;100.00;101420.19;5018210;28;20462;-73
2022/04/13 07:03:49;;;;;;;9.63;6.70;;;;;;;12.86;100.00;101384.25;5019438;28;20428;-73
2022/04/13 07:06:14;;;;;;;8.70;7.40;;;;;;;12.82;100.00;101399.16;5021618;28;20749;-73
2022/04/13 07:08:39;;;;;;;11.13;7.60;;;;;;;13.02;100.00;101418.94;5019316;28;20180;-73
2022/04/13 07:11:05;;;;;;;13.10;7.90;;;;;;;13.51;100.00;101479.00;5021147;28;20204;-70
2022/04/13 07:13:32;;;;;;;10.20;7.10;;;;;;;13.33;100.00;101450.75;5018534;28;20199;-73
2022/04/13 07:15:57;;;;;;;9.00;6.63;;;;;;;13.20;100.00;101410.28;5020605;28;20177;-73
2022/04/13 07:18:23;;;;;;;12.80;8.10;;;;;;;13.50;100.00;101439.63;5017854;28;20462;-72
2022/04/13 07:20:48;;;;;;;12.17;7.90;;;;;;;13.84;100.00;101487.19;5024613;28;20694;-73
2022/04/13 07:23:14;;;;;;;9.37;6.73;;;;;;;13.39;100.00;101419.47;5015849;28;20181;-73
2022/04/13 07:25:40;;;;;;;14.37;7.87;;;;;;;13.50;100.00;101431.53;4991776;28;20192;-73
2022/04/13 07:28:05;;;;;;;9.00;7.30;;;;;;;13.71;100.00;101463.75;5014349;28;20180;-73
2022/04/13 07:30:31;;;;;;;8.63;6.50;;;;;;;13.95;100.00;101488.47;4984753;28;20216;-73
2022/04/13 07:33:01;;;;;;;9.00;6.37;;;;;;;14.02;100.00;101513.56;5016811;28;20211;-73
2022/04/13 07:35:28;;;;;;;8.07;5.97;;;;;;;14.05;100.00;101504.25;4980595;28;20940;-73
2022/04/13 07:37:53;;;;;;;9.37;6.67;;;;;;;13.98;100.00;101512.34;4984588;28;20467;-74
2022/04/13 07:40:19;;;;;;;9.33;6.57;;;;;;;13.60;100.00;101441.91;4986915;28;20530;-73
2022/04/13 07:42:44;;;;;;;7.77;6.30;;;;;;;13.97;100.00;101511.50;5015846;28;20267;-73
2022/04/13 07:45:10;;;;;;;9.33;6.40;;;;;;;13.70;100.00;101461.25;5019765;28;20447;-73
2022/04/13 07:47:37;;;;;;;14.73;7.60;;;;;;;14.09;100.00;101514.44;5016825;28;20896;-73
2022/04/13 07:50:03;;;;;;;9.10;6.37;;;;;;;13.60;100.00;101440.09;5016187;28;20502;-73
2022/04/13 07:52:35;;;;;;;11.70;6.87;;;;;;;13.65;100.00;101448.38;5019803;28;20192;-73
2022/04/13 07:55:01;;;;;;;9.33;6.80;;;;;;;13.79;100.00;101465.41;5016659;28;20979;-73
2022/04/13 07:57:27;;;;;;;13.03;7.77;;;;;;;13.77;100.00;101475.59;5020609;28;20435;-73
2022/04/13 07:59:52;;;;;;;15.37;8.73;;;;;;;14.15;100.00;101532.47;5018430;28;20232;-73
2022/04/13 08:02:20;;;;;;;11.40;8.10;;;;;;;14.24;100.00;101530.41;5019276;28;20216;-73
2022/04/13 08:04:46;;;;;;;12.60;7.60;;;;;;;13.82;100.00;101467.69;5017370;28;20173;-73
2022/04/13 08:07:12;;;;;;;10.40;8.03;;;;;;;14.13;100.00;101523.75;5021061;28;20917;-73
2022/04/13 08:09:38;;;;;;;12.83;8.37;;;;;;;13.96;100.00;101499.03;5018125;28;20448;-73
2022/04/13 08:12:04;;;;;;;12.33;8.13;;;;;;;14.09;100.00;101519.81;5016908;28;20416;-73
2022/04/13 08:14:30;;;;;;;9.07;7.53;;;;;;;13.93;100.00;101494.06;5016676;28;20209;-72
2022/04/13 08:16:55;;;;;;;12.93;8.23;;;;;;;13.97;100.00;101484.53;5032102;28;20511;-73
2022/04/13 08:19:20;;;;;;;9.90;7.07;;;;;;;14.17;100.00;101516.06;5017250;28;20291;-73
2022/04/13 08:21:46;;;;;;;11.63;7.40;;;;;;;14.13;100.00;101521.06;5021719;28;20184;-73
2022/04/13 08:24:11;;;;;;;7.53;6.50;;;;;;;14.15;100.00;101521.69;5017924;28;20189;-73
2022/04/13 08:26:37;;;;;;;9.80;6.83;;;;;;;14.38;100.00;101550.97;5018356;28;20581;-73
2022/04/13 08:29:03;;;;;;;9.23;6.67;;;;;;;14.58;100.00;101567.22;5017090;28;20225;-73
2022/04/13 08:31:28;;;;;;;13.77;5.93;;;;;;;14.22;100.00;101519.00;5021530;28;20192;-73
2022/04/13 08:33:54;;;;;;;7.53;5.70;;;;;;;14.24;100.00;101512.34;5019198;28;20419;-73
2022/04/13 08:36:19;;;;;;;10.20;6.73;;;;;;;14.24;100.00;101501.56;5014155;28;20216;-73
2022/04/13 08:38:44;;;;;;;9.67;6.40;;;;;;;14.45;100.00;101537.47;5018368;28;20227;-73
2022/04/13 08:41:15;;;;;;;10.60;6.07;;;;;;;14.82;100.00;101583.84;5016908;28;20460;-73
2022/04/13 08:43:49;;;;;;;11.77;5.90;;;;;;;14.78;100.00;101575.31;5018882;28;20183;-72
2022/04/13 08:46:24;;;;;;;9.57;5.20;;;;;;;14.83;100.00;101577.38;5013494;28;20452;-73
2022/04/13 08:48:52;;;;;;;12.10;5.97;;;;;;;14.69;100.00;101561.19;5016841;28;20415;-73
2022/04/13 08:51:21;;;;;;;11.27;8.27;;;;;;;14.87;100.00;101578.63;5017903;28;20546;-73
2022/04/13 08:53:55;;;;;;;8.40;6.27;;;;;;;14.86;100.00;101588.59;5019013;28;20955;-73
2022/04/13 08:56:22;;;;;;;9.17;6.40;;;;;;;14.55;100.00;101520.88;5018819;28;20439;-72
2022/04/13 08:58:57;;;;;;;12.70;6.83;;;;;;;14.88;100.00;101589.22;5019118;28;20470;-73
2022/04/13 09:01:36;;;;;;;8.60;6.00;;;;;;;14.84;100.00;101587.13;5016096;28;20546;-73
2022/04/13 09:04:07;;;;;;;9.80;7.10;;;;;;;14.88;100.00;101601.91;5017653;28;20423;-73
2022/04/13 09:06:35;;;;;;;13.13;6.40;;;;;;;14.14;100.00;101473.31;5017087;28;20436;-73
2022/04/13 09:09:01;;;;;;;10.17;7.90;;;;;;;14.67;100.00;101552.47;5020067;28;20432;-73
2022/04/13 09:11:28;;;;;;;8.87;6.40;;;;;;;14.73;100.00;101560.78;5020496;28;20427;-72
2022/04/13 09:13:53;;;;;;;16.27;6.93;;;;;;;14.94;100.00;101595.66;5020492;28;20432;-73
2022/04/13 09:16:19;;;;;;;6.80;5.53;;;;;;;14.92;100.00;101597.72;5020869;28;20479;-73
2022/04/13 09:18:46;;;;;;;8.73;6.83;;;;;;;14.04;100.00;101462.13;5022523;28;20204;-73
2022/04/13 09:21:13;;;;;;;9.40;6.27;;;;;;;14.83;100.00;101580.09;5022456;28;20216;-73
2022/04/13 09:23:39;;;;;;;12.80;6.43;;;;;;;14.39;100.00;101522.13;5019385;28;20447;-73
2022/04/13 09:26:05;;;;;;;9.30;6.53;;;;;;;15.01;100.00;101596.47;5020805;28;20918;-73
2022/04/13 09:28:31;;;;;;;9.20;6.83;;;;;;;15.00;100.00;101602.09;5022179;28;20247;-73
2022/04/13 09:30:56;;;;;;;9.53;4.93;;;;;;;14.52;100.00;101519.44;5019971;28;20931;-73
2022/04/13 09:33:23;;;;;;;5.07;4.10;;;;;;;14.89;100.00;101571.97;5019404;28;20199;-74
2022/04/13 09:35:49;;;;;;;8.50;4.60;;;;;;;14.56;100.00;101517.16;5020567;28;20554;-73
2022/04/13 09:38:16;;;;;;;5.80;4.67;;;;;;;15.11;100.00;101609.56;5019039;28;20477;-74
2022/04/13 09:40:42;;;;;;;7.47;4.60;;;;;;;14.94;100.00;101563.25;5022631;28;20220;-74
2022/04/13 09:43:16;;;;;;;8.77;5.80;;;;;;;15.04;100.00;101593.38;5026271;28;20509;-73
2022/04/13 09:45:46;;;;;;;7.00;5.47;;;;;;;15.09;100.00;101614.34;5018557;28;20960;-74
2022/04/13 09:48:30;;;;;;;6.50;4.93;;;;;;;15.09;100.00;101598.97;5018703;28;20511;-73
2022/04/13 09:51:00;;;;;;;10.67;6.60;;;;;;;15.19;100.00;101613.91;5019331;28;20559;-73
2022/04/13 09:53:27;;;;;;;8.10;5.80;;;;;;;15.03;100.00;101577.34;5019591;28;20481;-74
2022/04/13 09:55:59;;;;;;;7.63;5.00;;;;;;;14.93;100.00;101564.28;5018363;28;21050;-74
2022/04/13 09:58:26;;;;;;;8.83;5.40;;;;;;;14.96;100.00;101561.16;5018790;28;20467;-74
2022/04/13 10:00:53;;;;;;;10.80;5.97;;;;;;;15.22;100.00;101587.31;5020997;28;20995;-73
2022/04/13 10:03:23;;;;;;;10.40;6.90;;;;;;;14.97;100.00;101543.09;5017928;28;20450;-73
2022/04/13 10:05:54;;;;;;;12.30;7.20;;;;;;;15.18;100.00;101590.63;5019838;28;20423;-73
2022/04/13 10:08:24;;;;;;;11.03;7.10;;;;;;;15.31;100.00;101606.84;5018351;28;20514;-73
2022/04/13 10:10:52;;;;;;;13.00;8.50;;;;;;;15.01;100.00;101558.66;5019749;28;20455;-73
2022/04/13 10:13:40;;;;;;;10.33;7.90;;;;;;;15.26;100.00;101585.00;5020499;28;20442;-74
2022/04/13 10:16:08;;;;;;;7.90;6.50;;;;;;;15.43;100.00;101632.16;5020760;28;20431;-73
2022/04/13 10:18:55;;;;;;;8.30;6.53;;;;;;;15.48;100.00;101628.84;5020970;28;20468;-73
2022/04/13 10:21:45;;;;;;;9.40;6.17;;;;;;;15.58;100.00;101629.22;5063200;23;20493;-73
2022/04/13 10:24:22;;;;;;;9.13;6.70;;;;;;;15.54;100.00;101623.41;5041773;28;20430;-73
2022/04/13 10:26:59;;;;;;;10.30;6.83;;;;;;;15.70;100.00;101629.41;5045356;28;20422;-73
2022/04/13 10:29:26;;;;;;;8.83;6.87;;;;;;;15.60;100.00;101621.72;5042333;28;20524;-73
2022/04/13 10:32:06;;;;;;;10.80;7.60;;;;;;;15.66;100.00;101631.69;5044287;28;20439;-73
2022/04/13 10:34:33;;;;;;;8.80;7.20;;;;;;;15.97;100.00;101624.75;5046054;28;20434;-73
2022/04/13 10:36:59;;;;;;;8.50;7.00;;;;;;;15.71;100.00;101606.75;5043624;28;20437;-73
2022/04/13 10:39:24;;;;;;;7.17;6.03;;;;;;;15.75;100.00;101611.50;5043656;28;21030;-73
2022/04/13 10:41:50;;;;;;;6.73;6.10;;;;;;;15.53;100.00;101583.03;5043528;28;20206;-73
2022/04/13 10:44:28;;;;;;;7.97;5.80;;;;;;;15.74;100.00;101600.91;5043019;28;20195;-70
2022/04/13 10:46:57;;;;;;;7.80;6.67;;;;;;;15.43;100.00;101551.06;5044574;28;20594;-70
2022/04/13 10:49:28;;;;;;;9.93;5.90;;;;;;;15.86;100.00;101620.81;5044712;28;20414;-70
2022/04/13 10:51:57;;;;;;;7.23;6.50;;;;;;;15.88;100.00;101620.59;5045864;28;20471;-70
2022/04/13 10:54:27;;;;;;;10.73;5.33;;;;;;;15.86;100.00;101609.19;5044243;28;20450;-70
2022/04/13 10:56:56;;;;;;;9.80;5.57;;;;;;;16.13;100.00;101631.50;5044470;28;20530;-70
2022/04/13 10:59:50;;;;;;;6.97;5.50;;;;;;;15.82;100.00;101576.28;5044598;28;20454;-70
2022/04/13 11:02:39;;;;;;;9.03;5.83;;;;;;;16.13;100.00;101612.56;5040563;28;20829;-70
2022/04/13 11:05:06;;;;;;;9.00;5.53;;;;;;;16.08;100.00;101604.25;5044592;28;20426;-70
2022/04/13 11:07:32;;;;;;;9.90;5.27;;;;;;;16.27;100.00;101625.81;5043235;28;20917;-70
2022/04/13 11:09:58;;;;;;;7.73;6.00;;;;;;;16.42;100.00;101628.22;5043514;28;20433;-70
2022/04/13 11:12:26;;;;;;;8.00;6.60;;;;;;;16.16;100.00;101596.72;5041416;28;20434;-70
2022/04/13 11:14:53;;;;;;;7.97;6.43;;;;;;;16.41;100.00;101629.28;5043886;28;20506;-70